Terminal Aerodrome Forecast
Issued by NWS

Home | Current Version | Previous Version | Text Only | Print | Product List | Glossary Off
Versions: 1 2 3 4 5 6 7 8 9 10 11 12 13 14

000
FTUS43 KBIS 210525
TAFDIK
TAF
KDIK 210525Z 2106/2206 15009KT P6SM VCSH BKN100 BKN150
      TEMPO 2106/2110 -SHRA OVC090
     FM211200 19007KT P6SM SCT070 BKN200
     FM211500 25008KT P6SM BKN200
     FM211900 34012KT P6SM FEW200
     FM220200 36007KT P6SM FEW200=

USA.gov is the U.S. government's official web portal to all federal, state and local government web resources and services.